sensor_id;sensor_type;location;lat;lon;timestamp;P1;durP1;ratioP1;P2;durP2;ratioP2
73729;SDS011;62036;48.128;16.458;2023-08-21T00:00:50;9.40;;;8.40;;
73729;SDS011;62036;48.128;16.458;2023-08-21T00:03:16;11.10;;;8.60;;
73729;SDS011;62036;48.128;16.458;2023-08-21T00:05:42;10.38;;;8.23;;
73729;SDS011;62036;48.128;16.458;2023-08-21T00:08:08;10.85;;;8.52;;
73729;SDS011;62036;48.128;16.458;2023-08-21T00:10:37;10.80;;;9.05;;
73729;SDS011;62036;48.128;16.458;2023-08-21T00:13:03;12.00;;;9.15;;
73729;SDS011;62036;48.128;16.458;2023-08-21T00:15:29;11.07;;;9.32;;
73729;SDS011;62036;48.128;16.458;2023-08-21T00:17:55;10.95;;;9.10;;
73729;SDS011;62036;48.128;16.458;2023-08-21T00:20:21;11.75;;;9.00;;
73729;SDS011;62036;48.128;16.458;2023-08-21T00:22:47;12.60;;;9.40;;
73729;SDS011;62036;48.128;16.458;2023-08-21T00:25:14;11.50;;;9.75;;
73729;SDS011;62036;48.128;16.458;2023-08-21T00:27:40;12.95;;;9.15;;
73729;SDS011;62036;48.128;16.458;2023-08-21T00:30:06;11.85;;;9.35;;
73729;SDS011;62036;48.128;16.458;2023-08-21T00:32:32;10.70;;;9.60;;
73729;SDS011;62036;48.128;16.458;2023-08-21T00:34:58;10.48;;;9.10;;
73729;SDS011;62036;48.128;16.458;2023-08-21T00:37:24;10.63;;;8.93;;
73729;SDS011;62036;48.128;16.458;2023-08-21T00:39:50;10.52;;;8.80;;
73729;SDS011;62036;48.128;16.458;2023-08-21T00:42:16;11.73;;;9.05;;
73729;SDS011;62036;48.128;16.458;2023-08-21T00:44:42;13.57;;;9.75;;
73729;SDS011;62036;48.128;16.458;2023-08-21T00:47:08;11.23;;;9.35;;
73729;SDS011;62036;48.128;16.458;2023-08-21T00:49:34;12.38;;;9.50;;
73729;SDS011;62036;48.128;16.458;2023-08-21T00:52:01;11.00;;;9.18;;
73729;SDS011;62036;48.128;16.458;2023-08-21T00:54:28;12.38;;;9.15;;
73729;SDS011;62036;48.128;16.458;2023-08-21T00:56:55;11.30;;;9.15;;
73729;SDS011;62036;48.128;16.458;2023-08-21T00:59:21;12.68;;;9.30;;
73729;SDS011;62036;48.128;16.458;2023-08-21T01:01:47;12.43;;;8.98;;
73729;SDS011;62036;48.128;16.458;2023-08-21T01:04:13;14.95;;;9.70;;
73729;SDS011;62036;48.128;16.458;2023-08-21T01:06:40;13.95;;;9.85;;
73729;SDS011;62036;48.128;16.458;2023-08-21T01:09:26;12.25;;;9.73;;
73729;SDS011;62036;48.128;16.458;2023-08-21T01:12:08;11.07;;;9.88;;
73729;SDS011;62036;48.128;16.458;2023-08-21T01:17:02;11.45;;;9.57;;
73729;SDS011;62036;48.128;16.458;2023-08-21T01:19:37;13.82;;;9.75;;
73729;SDS011;62036;48.128;16.458;2023-08-21T01:22:03;12.23;;;9.85;;
73729;SDS011;62036;48.128;16.458;2023-08-21T01:24:29;13.07;;;10.55;;
73729;SDS011;62036;48.128;16.458;2023-08-21T01:26:56;11.45;;;10.25;;
73729;SDS011;62036;48.128;16.458;2023-08-21T01:29:22;12.95;;;10.38;;
73729;SDS011;62036;48.128;16.458;2023-08-21T01:31:52;13.55;;;9.45;;
73729;SDS011;62036;48.128;16.458;2023-08-21T01:34:22;12.27;;;10.15;;
73729;SDS011;62036;48.128;16.458;2023-08-21T01:36:49;11.20;;;10.00;;
73729;SDS011;62036;48.128;16.458;2023-08-21T01:39:15;11.65;;;9.93;;
73729;SDS011;62036;48.128;16.458;2023-08-21T01:41:41;11.55;;;10.20;;
73729;SDS011;62036;48.128;16.458;2023-08-21T01:44:07;11.98;;;10.45;;
73729;SDS011;62036;48.128;16.458;2023-08-21T01:46:34;12.50;;;10.20;;
73729;SDS011;62036;48.128;16.458;2023-08-21T01:49:00;11.93;;;10.27;;
73729;SDS011;62036;48.128;16.458;2023-08-21T01:51:26;13.15;;;11.07;;
73729;SDS011;62036;48.128;16.458;2023-08-21T01:53:52;14.23;;;11.15;;
73729;SDS011;62036;48.128;16.458;2023-08-21T01:56:18;12.35;;;10.70;;
73729;SDS011;62036;48.128;16.458;2023-08-21T01:58:44;13.45;;;10.10;;
73729;SDS011;62036;48.128;16.458;2023-08-21T02:01:10;13.48;;;10.10;;
73729;SDS011;62036;48.128;16.458;2023-08-21T02:03:36;14.13;;;10.70;;
73729;SDS011;62036;48.128;16.458;2023-08-21T02:06:02;12.90;;;9.75;;
73729;SDS011;62036;48.128;16.458;2023-08-21T02:08:30;13.68;;;10.93;;
73729;SDS011;62036;48.128;16.458;2023-08-21T02:10:57;12.40;;;10.68;;
73729;SDS011;62036;48.128;16.458;2023-08-21T02:13:23;14.07;;;10.20;;
73729;SDS011;62036;48.128;16.458;2023-08-21T02:15:49;12.77;;;11.35;;
73729;SDS011;62036;48.128;16.458;2023-08-21T02:18:15;14.65;;;10.60;;
73729;SDS011;62036;48.128;16.458;2023-08-21T02:20:42;12.63;;;10.50;;
73729;SDS011;62036;48.128;16.458;2023-08-21T02:23:08;13.30;;;10.80;;
73729;SDS011;62036;48.128;16.458;2023-08-21T02:25:34;13.27;;;10.27;;
73729;SDS011;62036;48.128;16.458;2023-08-21T02:28:00;14.07;;;11.05;;
73729;SDS011;62036;48.128;16.458;2023-08-21T02:30:27;12.88;;;10.27;;
73729;SDS011;62036;48.128;16.458;2023-08-21T02:32:54;13.32;;;10.82;;
73729;SDS011;62036;48.128;16.458;2023-08-21T02:35:20;12.05;;;10.25;;
73729;SDS011;62036;48.128;16.458;2023-08-21T02:37:46;13.10;;;10.63;;
73729;SDS011;62036;48.128;16.458;2023-08-21T02:40:12;13.27;;;10.52;;
73729;SDS011;62036;48.128;16.458;2023-08-21T02:42:38;12.80;;;10.88;;
73729;SDS011;62036;48.128;16.458;2023-08-21T02:45:05;13.32;;;10.57;;
73729;SDS011;62036;48.128;16.458;2023-08-21T02:47:36;13.80;;;9.90;;
73729;SDS011;62036;48.128;16.458;2023-08-21T02:50:03;13.90;;;11.93;;
73729;SDS011;62036;48.128;16.458;2023-08-21T02:52:30;12.65;;;10.35;;
73729;SDS011;62036;48.128;16.458;2023-08-21T02:54:56;13.75;;;10.95;;
73729;SDS011;62036;48.128;16.458;2023-08-21T02:57:23;13.50;;;10.85;;
73729;SDS011;62036;48.128;16.458;2023-08-21T02:59:49;13.30;;;11.10;;
73729;SDS011;62036;48.128;16.458;2023-08-21T03:02:15;13.30;;;11.32;;
73729;SDS011;62036;48.128;16.458;2023-08-21T03:04:41;12.95;;;10.80;;
73729;SDS011;62036;48.128;16.458;2023-08-21T03:07:07;13.00;;;10.18;;
73729;SDS011;62036;48.128;16.458;2023-08-21T03:09:33;14.02;;;10.50;;
73729;SDS011;62036;48.128;16.458;2023-08-21T03:11:59;12.38;;;11.07;;
73729;SDS011;62036;48.128;16.458;2023-08-21T03:14:26;12.40;;;10.88;;
73729;SDS011;62036;48.128;16.458;2023-08-21T03:16:52;13.05;;;10.45;;
73729;SDS011;62036;48.128;16.458;2023-08-21T03:19:18;13.25;;;11.20;;
73729;SDS011;62036;48.128;16.458;2023-08-21T03:21:44;16.20;;;12.18;;
73729;SDS011;62036;48.128;16.458;2023-08-21T03:24:10;12.10;;;10.40;;
73729;SDS011;62036;48.128;16.458;2023-08-21T03:26:36;13.40;;;11.63;;
73729;SDS011;62036;48.128;16.458;2023-08-21T03:29:02;16.45;;;11.80;;
73729;SDS011;62036;48.128;16.458;2023-08-21T03:31:29;15.35;;;11.80;;
73729;SDS011;62036;48.128;16.458;2023-08-21T03:33:55;14.23;;;10.60;;
73729;SDS011;62036;48.128;16.458;2023-08-21T03:36:22;12.93;;;10.18;;
73729;SDS011;62036;48.128;16.458;2023-08-21T03:38:56;15.38;;;11.77;;
73729;SDS011;62036;48.128;16.458;2023-08-21T03:41:22;15.52;;;12.65;;
73729;SDS011;62036;48.128;16.458;2023-08-21T03:43:48;13.65;;;11.13;;
73729;SDS011;62036;48.128;16.458;2023-08-21T03:46:14;12.15;;;10.13;;
73729;SDS011;62036;48.128;16.458;2023-08-21T03:48:40;13.43;;;11.70;;
73729;SDS011;62036;48.128;16.458;2023-08-21T03:51:06;14.65;;;12.02;;
73729;SDS011;62036;48.128;16.458;2023-08-21T03:53:32;15.75;;;10.45;;
73729;SDS011;62036;48.128;16.458;2023-08-21T03:55:58;14.23;;;11.68;;
73729;SDS011;62036;48.128;16.458;2023-08-21T03:58:24;16.73;;;12.32;;
73729;SDS011;62036;48.128;16.458;2023-08-21T04:00:51;13.73;;;11.63;;
73729;SDS011;62036;48.128;16.458;2023-08-21T04:03:17;14.75;;;11.82;;
73729;SDS011;62036;48.128;16.458;2023-08-21T04:05:43;15.60;;;11.80;;
73729;SDS011;62036;48.128;16.458;2023-08-21T04:08:09;14.35;;;12.10;;
73729;SDS011;62036;48.128;16.458;2023-08-21T04:10:35;15.07;;;11.10;;
73729;SDS011;62036;48.128;16.458;2023-08-21T04:13:01;15.00;;;12.77;;
73729;SDS011;62036;48.128;16.458;2023-08-21T04:15:28;14.88;;;11.85;;
73729;SDS011;62036;48.128;16.458;2023-08-21T04:17:54;16.98;;;12.15;;
73729;SDS011;62036;48.128;16.458;2023-08-21T04:20:20;16.55;;;11.73;;
73729;SDS011;62036;48.128;16.458;2023-08-21T04:22:46;15.43;;;11.07;;
73729;SDS011;62036;48.128;16.458;2023-08-21T04:25:13;15.63;;;11.98;;
73729;SDS011;62036;48.128;16.458;2023-08-21T04:27:39;13.93;;;11.80;;
73729;SDS011;62036;48.128;16.458;2023-08-21T04:30:05;13.57;;;11.73;;
73729;SDS011;62036;48.128;16.458;2023-08-21T04:32:31;16.08;;;12.20;;
73729;SDS011;62036;48.128;16.458;2023-08-21T04:34:57;14.20;;;12.05;;
73729;SDS011;62036;48.128;16.458;2023-08-21T04:37:23;14.93;;;11.82;;
73729;SDS011;62036;48.128;16.458;2023-08-21T04:39:52;17.42;;;12.73;;
73729;SDS011;62036;48.128;16.458;2023-08-21T04:42:19;16.52;;;12.52;;
73729;SDS011;62036;48.128;16.458;2023-08-21T04:44:45;15.48;;;12.85;;
73729;SDS011;62036;48.128;16.458;2023-08-21T04:47:29;15.02;;;11.75;;
73729;SDS011;62036;48.128;16.458;2023-08-21T04:49:55;16.50;;;13.40;;
73729;SDS011;62036;48.128;16.458;2023-08-21T04:52:22;15.95;;;12.35;;
73729;SDS011;62036;48.128;16.458;2023-08-21T04:54:48;14.65;;;11.80;;
73729;SDS011;62036;48.128;16.458;2023-08-21T04:57:14;15.73;;;11.40;;
73729;SDS011;62036;48.128;16.458;2023-08-21T04:59:41;15.32;;;11.82;;
73729;SDS011;62036;48.128;16.458;2023-08-21T05:02:07;14.98;;;11.70;;
73729;SDS011;62036;48.128;16.458;2023-08-21T05:04:36;16.38;;;12.43;;
73729;SDS011;62036;48.128;16.458;2023-08-21T05:07:03;12.75;;;10.20;;
73729;SDS011;62036;48.128;16.458;2023-08-21T05:09:30;18.98;;;12.63;;
73729;SDS011;62036;48.128;16.458;2023-08-21T05:11:56;16.15;;;12.15;;
73729;SDS011;62036;48.128;16.458;2023-08-21T05:14:23;16.92;;;11.73;;
73729;SDS011;62036;48.128;16.458;2023-08-21T05:16:49;18.55;;;11.63;;
73729;SDS011;62036;48.128;16.458;2023-08-21T05:19:15;17.10;;;12.75;;
73729;SDS011;62036;48.128;16.458;2023-08-21T05:21:41;16.92;;;11.63;;
73729;SDS011;62036;48.128;16.458;2023-08-21T05:24:07;16.20;;;12.40;;
73729;SDS011;62036;48.128;16.458;2023-08-21T05:26:35;14.07;;;11.73;;
73729;SDS011;62036;48.128;16.458;2023-08-21T05:29:01;19.33;;;12.77;;
73729;SDS011;62036;48.128;16.458;2023-08-21T05:31:27;14.95;;;12.68;;
73729;SDS011;62036;48.128;16.458;2023-08-21T05:33:53;16.92;;;11.52;;
73729;SDS011;62036;48.128;16.458;2023-08-21T05:36:19;18.30;;;12.40;;
73729;SDS011;62036;48.128;16.458;2023-08-21T05:38:45;15.55;;;12.18;;
73729;SDS011;62036;48.128;16.458;2023-08-21T05:41:13;16.77;;;11.80;;
73729;SDS011;62036;48.128;16.458;2023-08-21T05:43:39;15.00;;;12.05;;
73729;SDS011;62036;48.128;16.458;2023-08-21T05:46:07;17.02;;;12.30;;
73729;SDS011;62036;48.128;16.458;2023-08-21T05:48:33;18.52;;;12.27;;
73729;SDS011;62036;48.128;16.458;2023-08-21T05:50:59;15.70;;;12.38;;
73729;SDS011;62036;48.128;16.458;2023-08-21T05:53:25;16.00;;;11.88;;
73729;SDS011;62036;48.128;16.458;2023-08-21T05:55:52;15.98;;;12.55;;
73729;SDS011;62036;48.128;16.458;2023-08-21T05:58:18;14.05;;;12.38;;
73729;SDS011;62036;48.128;16.458;2023-08-21T06:00:44;15.25;;;11.57;;
73729;SDS011;62036;48.128;16.458;2023-08-21T06:03:10;12.45;;;10.43;;
73729;SDS011;62036;48.128;16.458;2023-08-21T06:05:36;13.23;;;10.55;;
73729;SDS011;62036;48.128;16.458;2023-08-21T06:08:02;14.85;;;11.75;;
73729;SDS011;62036;48.128;16.458;2023-08-21T06:10:30;12.45;;;10.88;;
73729;SDS011;62036;48.128;16.458;2023-08-21T06:12:56;12.05;;;10.38;;
73729;SDS011;62036;48.128;16.458;2023-08-21T06:15:22;19.52;;;11.23;;
73729;SDS011;62036;48.128;16.458;2023-08-21T06:17:48;14.85;;;11.55;;
73729;SDS011;62036;48.128;16.458;2023-08-21T06:20:14;14.77;;;11.57;;
73729;SDS011;62036;48.128;16.458;2023-08-21T06:22:40;14.27;;;11.05;;
73729;SDS011;62036;48.128;16.458;2023-08-21T06:25:07;14.35;;;10.88;;
73729;SDS011;62036;48.128;16.458;2023-08-21T06:27:33;14.50;;;10.38;;
73729;SDS011;62036;48.128;16.458;2023-08-21T06:29:59;14.82;;;10.73;;
73729;SDS011;62036;48.128;16.458;2023-08-21T06:32:25;11.65;;;9.98;;
73729;SDS011;62036;48.128;16.458;2023-08-21T06:34:51;15.45;;;11.00;;
73729;SDS011;62036;48.128;16.458;2023-08-21T06:37:17;15.55;;;11.05;;
73729;SDS011;62036;48.128;16.458;2023-08-21T06:39:43;14.30;;;10.68;;
73729;SDS011;62036;48.128;16.458;2023-08-21T06:42:09;12.18;;;9.77;;
73729;SDS011;62036;48.128;16.458;2023-08-21T06:44:35;11.75;;;9.77;;
73729;SDS011;62036;48.128;16.458;2023-08-21T06:47:01;11.63;;;9.85;;
73729;SDS011;62036;48.128;16.458;2023-08-21T06:49:27;11.48;;;9.20;;
73729;SDS011;62036;48.128;16.458;2023-08-21T06:51:53;12.18;;;9.63;;
73729;SDS011;62036;48.128;16.458;2023-08-21T06:54:19;11.88;;;10.13;;
73729;SDS011;62036;48.128;16.458;2023-08-21T06:56:46;10.60;;;9.27;;
73729;SDS011;62036;48.128;16.458;2023-08-21T06:59:12;13.05;;;9.93;;
73729;SDS011;62036;48.128;16.458;2023-08-21T07:01:38;11.82;;;8.50;;
73729;SDS011;62036;48.128;16.458;2023-08-21T07:04:04;11.60;;;9.00;;
73729;SDS011;62036;48.128;16.458;2023-08-21T07:06:30;10.30;;;9.18;;
73729;SDS011;62036;48.128;16.458;2023-08-21T07:08:56;11.77;;;8.77;;
73729;SDS011;62036;48.128;16.458;2023-08-21T07:11:22;11.43;;;8.65;;
73729;SDS011;62036;48.128;16.458;2023-08-21T07:13:48;28.35;;;18.88;;
73729;SDS011;62036;48.128;16.458;2023-08-21T07:16:14;12.45;;;10.18;;
73729;SDS011;62036;48.128;16.458;2023-08-21T07:18:40;15.45;;;10.93;;
73729;SDS011;62036;48.128;16.458;2023-08-21T07:21:06;11.82;;;10.18;;
73729;SDS011;62036;48.128;16.458;2023-08-21T07:23:32;11.90;;;9.20;;
73729;SDS011;62036;48.128;16.458;2023-08-21T07:25:59;13.43;;;9.23;;
73729;SDS011;62036;48.128;16.458;2023-08-21T07:28:25;13.15;;;8.88;;
73729;SDS011;62036;48.128;16.458;2023-08-21T07:30:57;10.93;;;8.68;;
73729;SDS011;62036;48.128;16.458;2023-08-21T07:33:27;13.80;;;9.65;;
73729;SDS011;62036;48.128;16.458;2023-08-21T07:35:59;16.20;;;11.77;;
73729;SDS011;62036;48.128;16.458;2023-08-21T07:38:26;18.40;;;10.80;;
73729;SDS011;62036;48.128;16.458;2023-08-21T07:41:01;17.23;;;13.38;;
73729;SDS011;62036;48.128;16.458;2023-08-21T07:43:28;26.33;;;17.90;;
73729;SDS011;62036;48.128;16.458;2023-08-21T07:45:54;15.93;;;12.77;;
73729;SDS011;62036;48.128;16.458;2023-08-21T07:48:20;18.17;;;11.48;;
73729;SDS011;62036;48.128;16.458;2023-08-21T07:50:52;14.68;;;11.90;;
73729;SDS011;62036;48.128;16.458;2023-08-21T07:53:18;13.80;;;9.90;;
73729;SDS011;62036;48.128;16.458;2023-08-21T07:55:44;12.38;;;10.82;;
73729;SDS011;62036;48.128;16.458;2023-08-21T07:58:11;16.02;;;11.52;;
73729;SDS011;62036;48.128;16.458;2023-08-21T08:00:37;18.95;;;13.25;;
73729;SDS011;62036;48.128;16.458;2023-08-21T08:03:07;15.63;;;11.00;;
73729;SDS011;62036;48.128;16.458;2023-08-21T08:05:34;15.48;;;11.45;;
73729;SDS011;62036;48.128;16.458;2023-08-21T08:08:00;12.73;;;10.27;;
73729;SDS011;62036;48.128;16.458;2023-08-21T08:10:26;18.45;;;13.73;;
73729;SDS011;62036;48.128;16.458;2023-08-21T08:12:52;16.90;;;13.57;;
73729;SDS011;62036;48.128;16.458;2023-08-21T08:15:19;16.02;;;12.40;;
73729;SDS011;62036;48.128;16.458;2023-08-21T08:17:45;16.20;;;13.20;;
73729;SDS011;62036;48.128;16.458;2023-08-21T08:20:12;14.90;;;13.02;;
73729;SDS011;62036;48.128;16.458;2023-08-21T08:22:41;16.02;;;12.60;;
73729;SDS011;62036;48.128;16.458;2023-08-21T08:25:07;16.95;;;14.32;;
73729;SDS011;62036;48.128;16.458;2023-08-21T08:27:33;21.98;;;14.05;;
73729;SDS011;62036;48.128;16.458;2023-08-21T08:29:59;18.25;;;13.38;;
73729;SDS011;62036;48.128;16.458;2023-08-21T08:32:26;17.02;;;13.38;;
73729;SDS011;62036;48.128;16.458;2023-08-21T08:34:52;16.67;;;12.48;;
73729;SDS011;62036;48.128;16.458;2023-08-21T08:37:19;17.67;;;14.20;;
73729;SDS011;62036;48.128;16.458;2023-08-21T08:39:46;14.25;;;12.75;;
73729;SDS011;62036;48.128;16.458;2023-08-21T08:42:12;18.27;;;13.77;;
73729;SDS011;62036;48.128;16.458;2023-08-21T08:44:39;16.60;;;13.65;;
73729;SDS011;62036;48.128;16.458;2023-08-21T08:47:06;18.10;;;13.60;;
73729;SDS011;62036;48.128;16.458;2023-08-21T08:49:32;14.95;;;13.05;;
73729;SDS011;62036;48.128;16.458;2023-08-21T08:51:59;12.75;;;10.43;;
73729;SDS011;62036;48.128;16.458;2023-08-21T08:54:25;16.48;;;12.98;;
73729;SDS011;62036;48.128;16.458;2023-08-21T08:56:52;18.55;;;12.93;;
73729;SDS011;62036;48.128;16.458;2023-08-21T08:59:18;16.60;;;10.98;;
73729;SDS011;62036;48.128;16.458;2023-08-21T09:01:45;24.02;;;12.77;;
73729;SDS011;62036;48.128;16.458;2023-08-21T09:04:11;16.00;;;13.00;;
73729;SDS011;62036;48.128;16.458;2023-08-21T09:06:38;13.57;;;12.10;;
73729;SDS011;62036;48.128;16.458;2023-08-21T09:09:04;15.18;;;12.18;;
73729;SDS011;62036;48.128;16.458;2023-08-21T09:11:31;15.90;;;12.55;;
73729;SDS011;62036;48.128;16.458;2023-08-21T09:13:58;14.85;;;11.38;;
73729;SDS011;62036;48.128;16.458;2023-08-21T09:16:24;15.75;;;11.80;;
73729;SDS011;62036;48.128;16.458;2023-08-21T09:18:54;11.00;;;9.85;;
73729;SDS011;62036;48.128;16.458;2023-08-21T09:21:22;18.77;;;12.23;;
73729;SDS011;62036;48.128;16.458;2023-08-21T09:23:49;15.57;;;12.43;;
73729;SDS011;62036;48.128;16.458;2023-08-21T09:26:22;11.55;;;10.18;;
73729;SDS011;62036;48.128;16.458;2023-08-21T09:28:49;18.80;;;13.68;;
73729;SDS011;62036;48.128;16.458;2023-08-21T09:31:15;12.30;;;10.63;;
73729;SDS011;62036;48.128;16.458;2023-08-21T09:33:42;13.02;;;10.25;;
73729;SDS011;62036;48.128;16.458;2023-08-21T09:36:11;12.88;;;9.45;;
73729;SDS011;62036;48.128;16.458;2023-08-21T09:38:38;10.60;;;9.45;;
73729;SDS011;62036;48.128;16.458;2023-08-21T09:41:05;11.02;;;8.55;;
73729;SDS011;62036;48.128;16.458;2023-08-21T09:43:32;10.50;;;9.40;;
73729;SDS011;62036;48.128;16.458;2023-08-21T09:46:06;11.18;;;9.05;;
73729;SDS011;62036;48.128;16.458;2023-08-21T09:48:32;11.90;;;9.43;;
73729;SDS011;62036;48.128;16.458;2023-08-21T09:50:58;10.95;;;8.73;;
73729;SDS011;62036;48.128;16.458;2023-08-21T09:53:29;13.95;;;9.43;;
73729;SDS011;62036;48.128;16.458;2023-08-21T09:55:55;11.85;;;9.25;;
73729;SDS011;62036;48.128;16.458;2023-08-21T09:58:21;10.30;;;9.10;;
73729;SDS011;62036;48.128;16.458;2023-08-21T10:00:48;11.77;;;9.00;;
73729;SDS011;62036;48.128;16.458;2023-08-21T10:03:17;10.25;;;9.25;;
73729;SDS011;62036;48.128;16.458;2023-08-21T10:05:43;10.82;;;9.70;;
73729;SDS011;62036;48.128;16.458;2023-08-21T10:08:11;10.57;;;8.85;;
73729;SDS011;62036;48.128;16.458;2023-08-21T10:10:38;12.10;;;9.40;;
73729;SDS011;62036;48.128;16.458;2023-08-21T10:13:04;11.43;;;8.98;;
73729;SDS011;62036;48.128;16.458;2023-08-21T10:15:31;11.38;;;9.73;;
73729;SDS011;62036;48.128;16.458;2023-08-21T10:17:58;14.82;;;10.20;;
73729;SDS011;62036;48.128;16.458;2023-08-21T10:20:43;10.48;;;8.73;;
73729;SDS011;62036;48.128;16.458;2023-08-21T10:23:09;10.98;;;9.10;;
73729;SDS011;62036;48.128;16.458;2023-08-21T10:25:40;11.65;;;9.15;;
73729;SDS011;62036;48.128;16.458;2023-08-21T10:28:07;10.95;;;8.52;;
73729;SDS011;62036;48.128;16.458;2023-08-21T10:30:33;10.50;;;9.27;;
73729;SDS011;62036;48.128;16.458;2023-08-21T10:32:59;11.70;;;9.57;;
73729;SDS011;62036;48.128;16.458;2023-08-21T10:35:29;11.73;;;8.05;;
73729;SDS011;62036;48.128;16.458;2023-08-21T10:38:09;10.52;;;8.32;;
73729;SDS011;62036;48.128;16.458;2023-08-21T10:40:36;9.65;;;8.10;;
73729;SDS011;62036;48.128;16.458;2023-08-21T10:43:03;9.15;;;7.63;;
73729;SDS011;62036;48.128;16.458;2023-08-21T10:45:29;12.40;;;8.60;;
73729;SDS011;62036;48.128;16.458;2023-08-21T10:47:59;9.15;;;7.93;;
73729;SDS011;62036;48.128;16.458;2023-08-21T10:50:25;9.73;;;7.07;;
73729;SDS011;62036;48.128;16.458;2023-08-21T10:52:52;7.55;;;6.53;;
73729;SDS011;62036;48.128;16.458;2023-08-21T10:55:18;7.15;;;6.45;;
73729;SDS011;62036;48.128;16.458;2023-08-21T10:57:48;8.30;;;6.40;;
73729;SDS011;62036;48.128;16.458;2023-08-21T11:00:18;9.23;;;7.07;;
73729;SDS011;62036;48.128;16.458;2023-08-21T11:02:46;9.23;;;6.38;;
73729;SDS011;62036;48.128;16.458;2023-08-21T11:05:12;8.38;;;6.07;;
73729;SDS011;62036;48.128;16.458;2023-08-21T11:07:39;7.43;;;6.28;;
73729;SDS011;62036;48.128;16.458;2023-08-21T11:10:10;6.22;;;5.47;;
73729;SDS011;62036;48.128;16.458;2023-08-21T11:12:36;6.72;;;5.93;;
73729;SDS011;62036;48.128;16.458;2023-08-21T11:15:05;7.15;;;6.32;;
73729;SDS011;62036;48.128;16.458;2023-08-21T11:17:31;7.97;;;6.20;;
73729;SDS011;62036;48.128;16.458;2023-08-21T11:20:00;6.68;;;6.00;;
73729;SDS011;62036;48.128;16.458;2023-08-21T11:22:29;7.38;;;6.43;;
73729;SDS011;62036;48.128;16.458;2023-08-21T11:24:55;5.95;;;5.35;;
73729;SDS011;62036;48.128;16.458;2023-08-21T11:27:21;6.97;;;6.10;;
73729;SDS011;62036;48.128;16.458;2023-08-21T11:29:49;8.20;;;5.20;;
73729;SDS011;62036;48.128;16.458;2023-08-21T11:32:16;8.35;;;6.25;;
73729;SDS011;62036;48.128;16.458;2023-08-21T11:34:47;6.15;;;5.55;;
73729;SDS011;62036;48.128;16.458;2023-08-21T11:37:13;5.60;;;5.00;;
73729;SDS011;62036;48.128;16.458;2023-08-21T11:39:44;7.95;;;5.40;;
73729;SDS011;62036;48.128;16.458;2023-08-21T11:42:10;6.43;;;5.72;;
73729;SDS011;62036;48.128;16.458;2023-08-21T11:44:41;7.90;;;5.85;;
73729;SDS011;62036;48.128;16.458;2023-08-21T11:47:07;7.80;;;6.10;;
73729;SDS011;62036;48.128;16.458;2023-08-21T11:49:35;7.05;;;5.25;;
73729;SDS011;62036;48.128;16.458;2023-08-21T11:52:02;7.65;;;5.40;;
73729;SDS011;62036;48.128;16.458;2023-08-21T11:54:32;7.13;;;5.15;;
73729;SDS011;62036;48.128;16.458;2023-08-21T11:56:58;5.30;;;4.80;;
73729;SDS011;62036;48.128;16.458;2023-08-21T11:59:24;6.93;;;5.20;;
73729;SDS011;62036;48.128;16.458;2023-08-21T12:01:50;4.90;;;4.20;;
73729;SDS011;62036;48.128;16.458;2023-08-21T12:04:17;6.10;;;4.38;;
73729;SDS011;62036;48.128;16.458;2023-08-21T12:06:43;6.55;;;4.63;;
73729;SDS011;62036;48.128;16.458;2023-08-21T12:09:10;4.93;;;4.43;;
73729;SDS011;62036;48.128;16.458;2023-08-21T12:11:36;4.93;;;3.85;;
73729;SDS011;62036;48.128;16.458;2023-08-21T12:14:03;4.70;;;3.65;;
73729;SDS011;62036;48.128;16.458;2023-08-21T12:16:29;5.68;;;3.97;;
73729;SDS011;62036;48.128;16.458;2023-08-21T12:18:55;6.68;;;4.55;;
73729;SDS011;62036;48.128;16.458;2023-08-21T12:21:22;4.70;;;3.72;;
73729;SDS011;62036;48.128;16.458;2023-08-21T12:23:49;6.57;;;4.22;;
73729;SDS011;62036;48.128;16.458;2023-08-21T12:26:15;7.13;;;4.10;;
73729;SDS011;62036;48.128;16.458;2023-08-21T12:28:49;5.43;;;4.05;;
73729;SDS011;62036;48.128;16.458;2023-08-21T12:31:15;6.10;;;4.60;;
73729;SDS011;62036;48.128;16.458;2023-08-21T12:33:41;5.03;;;4.53;;
73729;SDS011;62036;48.128;16.458;2023-08-21T12:36:07;4.28;;;3.80;;
73729;SDS011;62036;48.128;16.458;2023-08-21T12:38:36;4.57;;;4.18;;
73729;SDS011;62036;48.128;16.458;2023-08-21T12:41:02;5.80;;;3.60;;
73729;SDS011;62036;48.128;16.458;2023-08-21T12:43:31;6.88;;;3.90;;
73729;SDS011;62036;48.128;16.458;2023-08-21T12:45:57;6.65;;;3.97;;
73729;SDS011;62036;48.128;16.458;2023-08-21T12:48:23;5.32;;;3.20;;
73729;SDS011;62036;48.128;16.458;2023-08-21T12:50:49;5.63;;;4.25;;
73729;SDS011;62036;48.128;16.458;2023-08-21T12:53:15;4.35;;;3.70;;
73729;SDS011;62036;48.128;16.458;2023-08-21T12:55:41;8.00;;;6.20;;
73729;SDS011;62036;48.128;16.458;2023-08-21T12:58:08;8.85;;;4.90;;
73729;SDS011;62036;48.128;16.458;2023-08-21T13:00:34;6.18;;;3.80;;
73729;SDS011;62036;48.128;16.458;2023-08-21T13:03:00;3.90;;;3.50;;
73729;SDS011;62036;48.128;16.458;2023-08-21T13:05:26;5.07;;;4.05;;
73729;SDS011;62036;48.128;16.458;2023-08-21T13:07:54;6.68;;;3.97;;
73729;SDS011;62036;48.128;16.458;2023-08-21T13:10:20;3.90;;;3.50;;
73729;SDS011;62036;48.128;16.458;2023-08-21T13:12:46;5.88;;;3.60;;
73729;SDS011;62036;48.128;16.458;2023-08-21T13:15:14;4.97;;;3.85;;
73729;SDS011;62036;48.128;16.458;2023-08-21T13:17:40;4.78;;;3.38;;
73729;SDS011;62036;48.128;16.458;2023-08-21T13:20:07;4.43;;;3.78;;
73729;SDS011;62036;48.128;16.458;2023-08-21T13:22:46;5.50;;;3.97;;
73729;SDS011;62036;48.128;16.458;2023-08-21T13:25:14;5.80;;;3.97;;
73729;SDS011;62036;48.128;16.458;2023-08-21T13:27:40;6.95;;;4.22;;
73729;SDS011;62036;48.128;16.458;2023-08-21T13:30:06;5.72;;;3.67;;
73729;SDS011;62036;48.128;16.458;2023-08-21T13:32:33;4.30;;;3.58;;
73729;SDS011;62036;48.128;16.458;2023-08-21T13:34:59;4.03;;;3.45;;
73729;SDS011;62036;48.128;16.458;2023-08-21T13:37:25;4.70;;;3.53;;
73729;SDS011;62036;48.128;16.458;2023-08-21T13:39:54;4.45;;;4.05;;
73729;SDS011;62036;48.128;16.458;2023-08-21T13:42:24;5.90;;;3.83;;
73729;SDS011;62036;48.128;16.458;2023-08-21T13:44:50;4.10;;;3.25;;
73729;SDS011;62036;48.128;16.458;2023-08-21T13:47:16;5.45;;;3.58;;
73729;SDS011;62036;48.128;16.458;2023-08-21T13:49:45;3.97;;;2.97;;
73729;SDS011;62036;48.128;16.458;2023-08-21T13:52:11;3.30;;;2.38;;
73729;SDS011;62036;48.128;16.458;2023-08-21T13:54:40;6.78;;;2.83;;
73729;SDS011;62036;48.128;16.458;2023-08-21T13:57:06;2.60;;;2.22;;
73729;SDS011;62036;48.128;16.458;2023-08-21T13:59:32;3.00;;;2.25;;
73729;SDS011;62036;48.128;16.458;2023-08-21T14:02:01;7.13;;;3.25;;
73729;SDS011;62036;48.128;16.458;2023-08-21T14:04:27;3.88;;;2.50;;
73729;SDS011;62036;48.128;16.458;2023-08-21T14:06:53;4.80;;;2.40;;
73729;SDS011;62036;48.128;16.458;2023-08-21T14:09:19;3.88;;;2.40;;
73729;SDS011;62036;48.128;16.458;2023-08-21T14:11:45;3.80;;;2.50;;
73729;SDS011;62036;48.128;16.458;2023-08-21T14:14:11;3.97;;;2.13;;
73729;SDS011;62036;48.128;16.458;2023-08-21T14:16:37;4.47;;;2.78;;
73729;SDS011;62036;48.128;16.458;2023-08-21T14:19:06;4.63;;;2.58;;